Time;durP1;ratioP1;P1;durP2;ratioP2;P2;SDS_P1;SDS_P2;PMS_P1;PMS_P2;Temp;Humidity;BMP_temperature;BMP_pressure;BME280_temperature;BME280_humidity;BME280_pressure;Samples;Min_cycle;Max_cycle;Signal;HPM_P1;HPM_P2
2022/06/09 00:02:08;;;;;;;6.30;3.37;;;;;;;20.21;53.16;99887.33;1787991;80;21022;-56
2022/06/09 00:04:38;;;;;;;4.97;3.05;;;;;;;20.16;53.12;99888.70;1788269;80;21053;-57
2022/06/09 00:07:16;;;;;;;5.75;3.60;;;;;;;20.13;53.22;99887.83;1788104;80;21059;-57
2022/06/09 00:09:50;;;;;;;6.35;3.40;;;;;;;20.11;53.33;99881.70;1788017;80;21026;-57
2022/06/09 00:12:20;;;;;;;5.78;3.20;;;;;;;20.11;53.67;99883.64;1788167;79;21034;-57
2022/06/09 00:14:50;;;;;;;5.47;3.45;;;;;;;20.10;53.88;99879.19;1788172;80;21454;-58
2022/06/09 00:17:19;;;;;;;4.62;3.35;;;;;;;20.10;54.14;99881.42;1788324;80;21026;-55
2022/06/09 00:19:48;;;;;;;6.30;3.37;;;;;;;20.09;53.95;99871.41;1788159;80;21066;-57
2022/06/09 00:22:17;;;;;;;5.03;3.37;;;;;;;20.10;53.87;99880.58;1788322;80;21074;-56
2022/06/09 00:24:46;;;;;;;5.30;2.80;;;;;;;20.09;53.74;99877.52;1788222;80;21422;-56
2022/06/09 00:27:17;;;;;;;3.70;2.70;;;;;;;20.06;53.68;99878.91;1788054;79;21447;-56
2022/06/09 00:29:46;;;;;;;4.85;2.72;;;;;;;20.03;53.38;99878.61;1788325;80;21022;-56
2022/06/09 00:32:15;;;;;;;4.35;3.08;;;;;;;19.98;53.44;99875.81;1788104;80;21085;-56
2022/06/09 00:34:45;;;;;;;6.08;3.17;;;;;;;19.93;53.87;99880.25;1787979;80;21059;-57
2022/06/09 00:37:14;;;;;;;4.05;3.00;;;;;;;19.87;54.01;99873.00;1787951;80;21050;-57
2022/06/09 00:39:44;;;;;;;6.47;2.90;;;;;;;19.81;54.20;99880.20;1787999;80;21010;-57
2022/06/09 00:42:13;;;;;;;5.78;3.33;;;;;;;19.76;54.32;99881.56;1788382;80;21097;-57
2022/06/09 00:44:42;;;;;;;6.62;3.65;;;;;;;19.74;54.98;99881.00;1788039;79;21022;-57
2022/06/09 00:47:21;;;;;;;4.65;3.20;;;;;;;19.70;55.26;99879.31;1788170;80;20990;-56
2022/06/09 00:50:01;;;;;;;5.17;3.15;;;;;;;19.67;55.57;99875.69;1788260;80;21050;-57
2022/06/09 00:52:35;;;;;;;5.47;3.30;;;;;;;19.66;55.65;99874.02;1788286;79;21077;-57
2022/06/09 00:55:07;;;;;;;4.28;3.22;;;;;;;19.68;55.35;99877.91;1788098;80;21061;-56
2022/06/09 00:57:47;;;;;;;5.25;3.30;;;;;;;19.70;55.22;99880.70;1785014;80;21094;-57
2022/06/09 01:00:21;;;;;;;5.67;3.30;;;;;;;19.68;55.36;99881.52;1774287;81;21059;-57
2022/06/09 01:02:50;;;;;;;5.35;3.42;;;;;;;19.63;55.61;99882.89;1774538;81;21071;-57
2022/06/09 01:05:21;;;;;;;5.60;3.40;;;;;;;19.54;55.89;99888.13;1774360;81;20983;-56
2022/06/09 01:07:53;;;;;;;5.78;3.47;;;;;;;19.45;56.22;99887.44;1774397;81;21491;-56
2022/06/09 01:10:23;;;;;;;4.72;3.12;;;;;;;19.33;56.41;99888.48;1774263;81;21435;-57
2022/06/09 01:12:53;;;;;;;5.47;3.80;;;;;;;19.31;56.53;99890.70;1774690;81;21019;-57
2022/06/09 01:15:45;;;;;;;7.20;3.72;;;;;;;19.32;56.59;99886.81;1774437;81;21022;-56
2022/06/09 01:18:34;;;;;;;6.37;3.55;;;;;;;19.32;56.60;99892.38;1774304;81;21536;-56
2022/06/09 01:21:34;;;;;;;4.92;3.60;;;;;;;19.33;56.73;99888.48;1774405;80;21019;-57
2022/06/09 01:24:14;;;;;;;6.17;3.80;;;;;;;19.38;56.93;99887.68;1756786;81;21043;-56
2022/06/09 01:27:05;;;;;;;6.80;3.65;;;;;;;19.42;57.00;99896.31;1774280;81;21455;-57
2022/06/09 01:29:45;;;;;;;7.12;3.80;;;;;;;19.42;57.14;99892.15;1774580;81;21059;-56
2022/06/09 01:32:22;;;;;;;6.15;4.10;;;;;;;19.45;57.42;99887.44;1774322;81;20991;-57
2022/06/09 01:35:18;;;;;;;9.20;4.10;;;;;;;19.47;57.63;99887.46;1774438;81;21501;-57
2022/06/09 01:37:49;;;;;;;7.53;4.35;;;;;;;19.46;57.82;99888.56;1774324;80;21098;-56
2022/06/09 01:40:18;;;;;;;8.50;4.60;;;;;;;19.46;58.01;99885.78;1774329;81;21467;-57
2022/06/09 01:42:50;;;;;;;7.17;4.45;;;;;;;19.45;58.13;99888.28;1774384;81;21058;-56
2022/06/09 01:45:42;;;;;;;6.97;4.60;;;;;;;19.47;58.22;99888.02;1774287;81;21086;-56
2022/06/09 01:48:17;;;;;;;6.50;4.60;;;;;;;19.51;58.35;99882.23;1774287;81;21535;-56
2022/06/09 01:50:58;;;;;;;5.95;4.65;;;;;;;19.55;58.45;99886.17;1774238;81;21056;-57
2022/06/09 01:53:53;;;;;;;6.83;4.83;;;;;;;19.56;58.53;99892.02;1774523;81;20999;-57
2022/06/09 01:56:49;;;;;;;7.58;4.42;;;;;;;19.58;58.56;99889.81;1752997;81;21066;-56
2022/06/09 01:59:32;;;;;;;6.45;4.72;;;;;;;19.58;58.62;99887.87;1774290;79;21046;-56
2022/06/09 02:02:12;;;;;;;8.13;4.62;;;;;;;19.60;58.71;99891.21;1774473;81;21019;-56
2022/06/09 02:04:46;;;;;;;7.95;4.83;;;;;;;19.59;58.90;99890.93;1774246;81;21467;-57
2022/06/09 02:07:15;;;;;;;8.65;5.22;;;;;;;19.59;59.07;99890.09;1774512;81;21050;-57
2022/06/09 02:09:45;;;;;;;11.15;5.40;;;;;;;19.59;58.92;99888.15;1774368;81;20999;-57
2022/06/09 02:12:17;;;;;;;10.82;4.92;;;;;;;19.57;58.83;99888.14;1774299;81;21023;-56
2022/06/09 02:14:50;;;;;;;10.68;5.40;;;;;;;19.55;58.90;99893.13;1774326;81;21066;-56
2022/06/09 02:17:20;;;;;;;7.83;4.90;;;;;;;19.53;58.85;99888.39;1774398;81;21066;-56
2022/06/09 02:19:49;;;;;;;6.35;5.20;;;;;;;19.53;58.71;99896.73;1774167;81;21034;-58
2022/06/09 02:22:18;;;;;;;8.03;5.15;;;;;;;19.54;58.71;99901.18;1774584;81;21062;-57
2022/06/09 02:24:47;;;;;;;7.58;5.22;;;;;;;19.55;58.63;99900.91;1774234;80;21447;-57
2022/06/09 02:27:16;;;;;;;12.10;5.25;;;;;;;19.57;58.63;99895.92;1774401;80;21058;-56
2022/06/09 02:29:47;;;;;;;8.95;5.53;;;;;;;19.60;58.68;99897.33;1774619;81;21459;-55
2022/06/09 02:32:16;;;;;;;11.45;5.53;;;;;;;19.62;58.68;99906.23;1774274;81;21086;-57
2022/06/09 02:34:44;;;;;;;8.55;5.15;;;;;;;19.63;58.72;99901.80;1774316;81;21386;-58
2022/06/09 02:37:15;;;;;;;9.28;5.35;;;;;;;19.63;58.68;99900.40;1774255;81;21018;-59
2022/06/09 02:39:44;;;;;;;11.30;5.58;;;;;;;19.62;58.79;99906.23;1774311;80;21073;-57
2022/06/09 02:42:13;;;;;;;9.03;5.03;;;;;;;19.58;58.93;99907.32;1774388;81;21030;-56
2022/06/09 02:44:44;;;;;;;8.58;5.25;;;;;;;19.57;59.07;99915.92;1773997;81;21462;-57
2022/06/09 02:47:13;;;;;;;7.97;5.37;;;;;;;19.54;59.23;99922.86;1774095;81;21078;-56
2022/06/09 02:49:44;;;;;;;9.63;5.37;;;;;;;19.49;59.42;99922.77;1774571;81;21051;-56
2022/06/09 02:52:15;;;;;;;10.40;4.87;;;;;;;19.48;59.43;99921.64;1774343;81;21551;-57
2022/06/09 02:54:44;;;;;;;16.00;6.25;;;;;;;19.48;59.52;99923.03;1774324;81;21042;-57
2022/06/09 02:57:13;;;;;;;10.15;4.97;;;;;;;19.49;59.53;99922.77;1774247;81;21410;-57
2022/06/09 02:59:45;;;;;;;9.43;6.00;;;;;;;19.52;59.43;99921.42;1774093;80;21050;-56
2022/06/09 03:02:13;;;;;;;14.15;5.62;;;;;;;19.54;59.49;99927.03;1773907;80;21019;-56
2022/06/09 03:04:43;;;;;;;9.15;5.08;;;;;;;19.51;59.63;99920.59;1774064;80;20995;-57
2022/06/09 03:07:13;;;;;;;9.98;5.30;;;;;;;19.51;59.75;99930.31;1774162;81;21062;-56
2022/06/09 03:09:43;;;;;;;11.53;5.45;;;;;;;19.54;59.98;99930.36;1774144;81;21042;-56
2022/06/09 03:12:13;;;;;;;7.80;5.28;;;;;;;19.57;59.93;99926.49;1774403;81;21011;-62
2022/06/09 03:14:42;;;;;;;9.75;5.42;;;;;;;19.60;59.93;99930.13;1774108;81;21056;-57
2022/06/09 03:17:12;;;;;;;11.00;5.25;;;;;;;19.60;59.84;99932.91;1774634;81;21026;-57
2022/06/09 03:19:41;;;;;;;9.85;5.47;;;;;;;19.60;59.68;99930.67;1774253;81;21403;-57
2022/06/09 03:22:10;;;;;;;8.33;5.45;;;;;;;19.63;59.66;99928.75;1774305;81;21066;-59
2022/06/09 03:24:39;;;;;;;10.50;5.00;;;;;;;19.68;59.25;99932.11;1774215;81;21003;-57
2022/06/09 03:27:09;;;;;;;9.98;6.12;;;;;;;19.75;58.79;99925.76;1774255;81;20991;-56
2022/06/09 03:29:38;;;;;;;11.85;5.87;;;;;;;19.82;58.29;99924.41;1774521;81;21027;-58
2022/06/09 03:32:07;;;;;;;11.25;5.70;;;;;;;19.88;58.06;99926.11;1774559;81;21031;-56
2022/06/09 03:34:36;;;;;;;14.33;5.95;;;;;;;19.94;58.00;99927.80;1774279;81;21058;-57
2022/06/09 03:37:05;;;;;;;14.80;5.75;;;;;;;20.01;58.24;99926.72;1774512;80;21046;-56
2022/06/09 03:39:34;;;;;;;14.28;5.08;;;;;;;20.07;58.29;99928.41;1774240;81;21443;-58
2022/06/09 03:42:05;;;;;;;12.40;5.33;;;;;;;20.12;58.31;99926.48;1774327;81;21019;-56
2022/06/09 03:44:33;;;;;;;10.78;5.55;;;;;;;20.18;58.52;99917.64;1774624;81;21463;-56
2022/06/09 03:47:05;;;;;;;13.15;5.33;;;;;;;20.22;58.59;99921.55;1774695;81;20999;-56
2022/06/09 03:49:34;;;;;;;9.55;5.37;;;;;;;20.29;58.68;99920.73;1774372;81;21047;-57
2022/06/09 03:52:05;;;;;;;9.55;5.40;;;;;;;20.37;58.41;99913.80;1774606;80;21070;-56
2022/06/09 03:54:37;;;;;;;9.50;4.83;;;;;;;20.46;58.32;99911.63;1774120;80;21435;-56
2022/06/09 03:57:06;;;;;;;7.40;5.03;;;;;;;20.55;58.19;99908.59;1774414;81;20987;-56
2022/06/09 03:59:35;;;;;;;8.38;5.30;;;;;;;20.63;57.97;99911.39;1782588;80;21077;-56
2022/06/09 04:02:07;;;;;;;10.72;5.10;;;;;;;20.71;57.72;99909.45;1787767;80;21023;-57
2022/06/09 04:04:36;;;;;;;8.80;4.75;;;;;;;20.78;57.30;99900.83;1787987;80;21026;-56
2022/06/09 04:07:06;;;;;;;8.05;5.15;;;;;;;20.85;57.47;99906.42;1788418;80;21030;-58
2022/06/09 04:09:34;;;;;;;12.47;6.50;;;;;;;20.90;56.78;99904.20;1788269;80;21082;-57
2022/06/09 04:12:04;;;;;;;11.70;5.10;;;;;;;20.96;56.68;99903.64;1788293;80;21002;-57
2022/06/09 04:14:33;;;;;;;8.03;4.60;;;;;;;21.01;56.53;99896.69;1787972;80;21026;-57
2022/06/09 04:17:02;;;;;;;7.33;4.75;;;;;;;21.05;56.46;99897.23;1788167;80;21066;-55
2022/06/09 04:19:31;;;;;;;6.97;4.45;;;;;;;21.06;56.34;99895.29;1760145;80;21101;-56
2022/06/09 04:22:01;;;;;;;11.68;5.42;;;;;;;21.09;56.19;99890.00;1788066;80;21022;-56
2022/06/09 04:24:31;;;;;;;10.98;4.67;;;;;;;21.14;56.10;99895.56;1788181;80;21510;-56
2022/06/09 04:27:00;;;;;;;14.98;5.40;;;;;;;21.17;56.02;99891.38;1788286;79;21018;-56
2022/06/09 04:29:29;;;;;;;9.38;4.72;;;;;;;21.20;55.51;99890.82;1788004;80;21034;-56
2022/06/09 04:31:58;;;;;;;10.65;4.30;;;;;;;21.25;55.61;99883.88;1788095;80;21474;-56
2022/06/09 04:34:27;;;;;;;23.60;7.20;;;;;;;21.31;55.51;99888.89;1788154;80;21478;-57
2022/06/09 04:36:58;;;;;;;19.42;4.72;;;;;;;21.36;54.54;99891.11;1788349;80;20996;-56
2022/06/09 04:39:27;;;;;;;11.57;4.70;;;;;;;21.44;54.40;99892.48;1788023;80;21178;-56
2022/06/09 04:41:57;;;;;;;6.25;3.50;;;;;;;21.51;53.79;99896.69;1788241;80;21030;-56
2022/06/09 04:44:27;;;;;;;10.25;3.92;;;;;;;21.59;53.87;99893.87;1788243;80;21030;-56
2022/06/09 04:46:56;;;;;;;6.25;3.05;;;;;;;21.67;52.83;99893.86;1788231;79;21006;-57
2022/06/09 04:49:26;;;;;;;11.22;4.05;;;;;;;21.76;51.19;99888.80;1788218;80;22016;-56
2022/06/09 04:51:55;;;;;;;14.03;3.42;;;;;;;21.93;49.72;99889.02;1787974;80;21026;-57
2022/06/09 04:54:23;;;;;;;12.93;3.33;;;;;;;22.13;49.14;99894.58;1788491;80;21055;-57
2022/06/09 04:56:53;;;;;;;7.22;3.05;;;;;;;22.36;48.19;99897.25;1788206;80;22101;-56
2022/06/09 04:59:25;;;;;;;7.30;3.00;;;;;;;22.66;47.36;99885.88;1787984;80;21074;-55
2022/06/09 05:01:54;;;;;;;11.45;3.60;;;;;;;23.00;46.15;99892.11;1788024;79;21037;-56
2022/06/09 05:04:23;;;;;;;5.87;2.95;;;;;;;23.40;45.22;99892.30;1787936;80;21565;-57
2022/06/09 05:06:54;;;;;;;5.67;2.80;;;;;;;23.82;44.29;99893.58;1787903;80;21454;-58
2022/06/09 05:09:25;;;;;;;7.10;2.58;;;;;;;24.23;43.18;99894.77;1787962;80;21050;-57
2022/06/09 05:11:53;;;;;;;8.43;3.37;;;;;;;24.65;42.03;99888.88;1788245;80;21105;-57
2022/06/09 05:14:22;;;;;;;10.85;3.05;;;;;;;25.06;40.55;99893.88;1787860;80;21097;-57
2022/06/09 05:16:52;;;;;;;10.45;3.08;;;;;;;25.41;39.31;99884.88;1788023;80;21058;-57
2022/06/09 05:19:21;;;;;;;17.73;3.67;;;;;;;25.73;38.82;99886.81;1788133;80;21065;-57
2022/06/09 05:21:49;;;;;;;10.80;3.58;;;;;;;26.07;38.28;99889.80;1788017;80;21055;-56
2022/06/09 05:24:21;;;;;;;9.13;3.60;;;;;;;26.40;37.39;99883.49;1788220;80;21069;-57
2022/06/09 05:26:50;;;;;;;10.98;3.30;;;;;;;26.72;36.84;99890.92;1788004;80;21033;-58
2022/06/09 05:29:20;;;;;;;11.30;3.27;;;;;;;27.06;36.64;99883.38;1788215;80;21023;-57
2022/06/09 05:31:50;;;;;;;10.82;3.22;;;;;;;27.38;35.86;99887.91;1785314;80;21034;-57
2022/06/09 05:34:19;;;;;;;6.92;2.60;;;;;;;27.71;34.91;99889.28;1787901;80;20998;-56
2022/06/09 05:36:50;;;;;;;9.75;3.20;;;;;;;28.03;34.51;99895.15;1787843;80;21450;-57
2022/06/09 05:45:02;;;;;;;8.43;3.08;;;;;;;28.76;32.62;99887.63;1652307;87;21123;-56
2022/06/09 05:47:31;;;;;;;6.28;2.83;;;;;;;28.93;32.30;99891.30;1703806;83;21018;-57
2022/06/09 05:50:01;;;;;;;7.15;2.75;;;;;;;29.21;32.11;99887.53;1722029;83;21570;-58
2022/06/09 05:52:31;;;;;;;10.93;3.00;;;;;;;29.49;31.97;99887.20;1721652;83;21438;-57
2022/06/09 05:55:01;;;;;;;7.90;3.08;;;;;;;29.76;31.55;99888.19;1721985;83;21102;-58
2022/06/09 05:57:29;;;;;;;15.50;3.83;;;;;;;29.96;31.10;99886.64;1722007;82;20999;-57
2022/06/09 06:00:00;;;;;;;8.43;3.72;;;;;;;30.12;31.09;99894.81;1715989;82;21063;-57
2022/06/09 06:02:30;;;;;;;10.18;3.20;;;;;;;30.26;30.56;99889.74;1709647;84;21047;-58
2022/06/09 06:04:59;;;;;;;6.05;3.10;;;;;;;30.37;30.10;99891.59;1709816;82;21078;-56
2022/06/09 06:07:29;;;;;;;12.03;4.35;;;;;;;30.47;30.25;99893.19;1761308;81;21362;-57
2022/06/09 06:09:59;;;;;;;14.00;4.10;;;;;;;30.51;29.99;99893.57;1774800;81;21062;-57
2022/06/09 06:12:32;;;;;;;14.45;3.35;;;;;;;30.60;29.86;99894.98;1774457;80;20987;-56
2022/06/09 06:15:02;;;;;;;7.55;3.08;;;;;;;30.68;29.67;99895.51;1774635;81;21023;-57
2022/06/09 06:17:31;;;;;;;12.37;3.10;;;;;;;30.73;29.44;99902.95;1775084;81;21027;-57
2022/06/09 06:20:01;;;;;;;8.10;3.37;;;;;;;30.81;29.20;99895.81;1775006;81;21078;-58
2022/06/09 06:22:30;;;;;;;7.15;2.75;;;;;;;30.99;29.05;99902.74;1774624;80;21093;-58
2022/06/09 06:25:07;;;;;;;13.53;3.37;;;;;;;31.14;28.95;99900.09;1774483;81;21458;-57
2022/06/09 06:27:36;;;;;;;6.10;2.60;;;;;;;31.33;28.53;99895.98;1774708;81;21462;-57
2022/06/09 06:30:08;;;;;;;8.25;2.85;;;;;;;31.51;27.74;99893.20;1773466;79;22036;-56
2022/06/09 06:32:38;;;;;;;12.03;2.85;;;;;;;31.67;27.72;99898.43;1775040;81;21031;-58
2022/06/09 06:35:08;;;;;;;10.23;3.33;;;;;;;31.71;27.62;99899.41;1774839;80;21074;-56
2022/06/09 06:37:39;;;;;;;10.13;3.65;;;;;;;31.75;27.21;99903.20;1774236;81;21066;-57
2022/06/09 06:40:11;;;;;;;11.73;2.80;;;;;;;31.71;27.33;99896.58;1774793;80;21042;-56
2022/06/09 06:42:40;;;;;;;8.18;2.20;;;;;;;31.78;26.88;99896.00;1775218;81;21023;-58
2022/06/09 06:45:12;;;;;;;9.18;2.85;;;;;;;31.89;26.06;99897.81;1775051;81;21046;-57
2022/06/09 06:47:42;;;;;;;5.42;2.40;;;;;;;31.99;25.90;99892.51;1774828;79;21130;-57
2022/06/09 06:50:12;;;;;;;9.98;2.87;;;;;;;32.01;25.85;99889.31;1775092;81;21019;-57
2022/06/09 06:52:41;;;;;;;10.53;2.85;;;;;;;31.91;25.81;99885.53;1774960;80;21030;-58
2022/06/09 06:55:14;;;;;;;5.70;2.15;;;;;;;31.97;26.75;99894.87;1775027;81;21042;-57
2022/06/09 06:57:42;;;;;;;6.65;2.08;;;;;;;32.25;26.33;99892.18;1774848;81;21082;-57
2022/06/09 07:00:17;;;;;;;7.28;2.42;;;;;;;32.53;26.03;99888.63;1774793;79;21054;-57
2022/06/09 07:02:47;;;;;;;6.20;2.10;;;;;;;32.67;25.49;99890.49;1774948;81;21068;-56
2022/06/09 07:05:19;;;;;;;9.05;3.72;;;;;;;32.71;26.26;99889.41;1770759;81;21053;-58
2022/06/09 07:07:49;;;;;;;9.63;3.22;;;;;;;32.93;24.99;99885.24;1774784;81;21062;-56
2022/06/09 07:10:19;;;;;;;4.33;2.37;;;;;;;33.08;24.89;99889.32;1774797;81;21077;-56
2022/06/09 07:12:50;;;;;;;8.60;2.30;;;;;;;33.27;24.08;99885.84;1774363;79;20995;-56
2022/06/09 07:15:20;;;;;;;4.72;1.90;;;;;;;33.30;23.74;99892.24;1774973;79;21051;-56
2022/06/09 07:17:50;;;;;;;4.92;1.90;;;;;;;33.25;23.61;99886.80;1774770;80;21459;-56
2022/06/09 07:20:20;;;;;;;12.43;2.95;;;;;;;33.14;23.88;99891.31;1774874;81;21031;-57
2022/06/09 07:22:49;;;;;;;8.40;2.42;;;;;;;33.22;23.82;99891.78;1774919;81;21027;-57
2022/06/09 07:25:20;;;;;;;5.87;2.00;;;;;;;33.40;23.54;99894.55;1774783;81;21042;-57
2022/06/09 07:27:49;;;;;;;9.50;3.42;;;;;;;33.54;23.14;99899.80;1774995;81;21427;-59
2022/06/09 07:30:20;;;;;;;11.48;3.00;;;;;;;33.55;23.26;99890.92;1774887;81;21066;-58
2022/06/09 07:32:48;;;;;;;5.87;2.08;;;;;;;33.52;23.45;99888.80;1774746;81;21014;-59
2022/06/09 07:35:21;;;;;;;3.15;1.70;;;;;;;33.65;23.18;99897.48;1774751;80;21455;-59
2022/06/09 07:37:49;;;;;;;6.30;2.00;;;;;;;33.86;22.69;99897.88;1774870;81;21046;-57
2022/06/09 07:40:18;;;;;;;4.55;1.90;;;;;;;34.05;22.61;99903.66;1774394;79;21018;-58
2022/06/09 07:42:48;;;;;;;7.55;2.60;;;;;;;34.25;22.09;99906.80;1772127;80;21057;-57
2022/06/09 07:45:17;;;;;;;4.40;1.50;;;;;;;34.27;22.26;99902.98;1772397;81;21033;-58
2022/06/09 07:47:47;;;;;;;4.67;1.60;;;;;;;34.36;21.83;99900.58;1772288;81;21080;-57
2022/06/09 07:50:15;;;;;;;4.72;1.65;;;;;;;34.43;21.92;99904.41;1772275;81;21406;-57
2022/06/09 07:52:47;;;;;;;3.77;1.90;;;;;;;34.52;21.57;99908.52;1771894;81;21471;-57
2022/06/09 07:55:16;;;;;;;6.85;2.00;;;;;;;34.53;21.75;99908.14;1772295;81;21053;-57
2022/06/09 07:57:45;;;;;;;4.42;1.92;;;;;;;34.54;21.37;99898.41;1772417;81;21118;-58
2022/06/09 08:00:15;;;;;;;6.87;2.50;;;;;;;34.44;22.00;99898.12;1774844;80;21693;-58
2022/06/09 08:02:46;;;;;;;5.80;2.05;;;;;;;34.41;22.28;99908.83;1779581;80;21520;-58
2022/06/09 08:05:16;;;;;;;8.33;2.72;;;;;;;34.43;22.22;99897.91;1779784;80;21508;-58
2022/06/09 08:10:32;;;;;;;5.65;2.10;;;;;;;34.27;22.55;99897.30;1779823;80;21047;-57
2022/06/09 08:13:04;;;;;;;4.55;1.87;;;;;;;34.10;22.28;99890.58;1779717;80;21006;-60
2022/06/09 08:15:35;;;;;;;5.67;2.00;;;;;;;34.11;22.70;99893.66;1779750;80;21037;-59
2022/06/09 08:18:05;;;;;;;3.92;1.47;;;;;;;34.41;22.26;99896.84;1779788;80;21071;-59
2022/06/09 08:20:38;;;;;;;5.45;2.30;;;;;;;34.68;21.86;99890.80;1779829;80;21021;-59
2022/06/09 08:23:26;;;;;;;5.50;1.80;;;;;;;34.85;21.59;99900.36;1779847;80;21104;-59
2022/06/09 08:25:58;;;;;;;5.55;1.90;;;;;;;34.97;21.39;99889.42;1779798;80;21481;-60
2022/06/09 08:28:27;;;;;;;1.92;1.52;;;;;;;34.95;21.37;99901.19;1779491;80;21445;-59
2022/06/09 08:30:57;;;;;;;6.78;2.00;;;;;;;35.08;20.83;99899.02;1779494;80;21465;-60
2022/06/09 08:33:26;;;;;;;3.90;1.90;;;;;;;35.07;20.64;99893.70;1779583;80;21033;-59
2022/06/09 08:35:55;;;;;;;6.10;2.47;;;;;;;34.94;21.09;99888.75;1779678;80;21025;-58
2022/06/09 08:38:23;;;;;;;7.72;2.20;;;;;;;34.85;21.17;99896.09;1779629;80;21100;-61
2022/06/09 08:41:17;;;;;;;7.47;1.65;;;;;;;34.63;21.03;99898.20;1779768;80;21061;-61
2022/06/09 08:43:58;;;;;;;2.42;1.55;;;;;;;34.44;21.44;99898.12;1759275;80;21084;-59
2022/06/09 08:46:53;;;;;;;3.90;1.77;;;;;;;34.38;21.61;99894.74;1779738;80;21012;-60
2022/06/09 08:49:52;;;;;;;6.92;2.37;;;;;;;34.40;21.21;99890.11;1779485;80;21186;-60
2022/06/09 08:52:40;;;;;;;6.53;1.90;;;;;;;34.28;21.46;99887.57;1779828;80;21017;-60
2022/06/09 08:55:52;;;;;;;7.95;2.37;;;;;;;34.02;21.50;99883.89;1779558;80;21017;-58
2022/06/09 08:58:43;;;;;;;5.45;2.10;;;;;;;33.64;21.89;99886.48;1779479;80;21076;-61
2022/06/09 09:01:24;;;;;;;9.03;2.30;;;;;;;33.31;22.24;99897.56;1776179;80;21090;-61
2022/06/09 09:03:59;;;;;;;6.15;2.02;;;;;;;33.10;22.77;99893.45;1773938;81;21053;-61
2022/06/09 09:06:42;;;;;;;8.33;2.73;;;;;;;32.93;23.08;99895.17;1774177;81;21060;-60
2022/06/09 09:09:24;;;;;;;5.15;2.25;;;;;;;32.71;23.42;99892.84;1774148;81;21049;-61
2022/06/09 09:12:18;;;;;;;7.97;2.20;;;;;;;32.53;23.72;99894.30;1773998;81;21069;-61
2022/06/09 09:14:51;;;;;;;4.45;1.92;;;;;;;32.32;23.74;99892.41;1774045;81;21719;-62
2022/06/09 09:17:28;;;;;;;7.33;2.72;;;;;;;32.10;23.99;99890.86;1759232;81;21034;-61
2022/06/09 09:20:16;;;;;;;4.12;1.98;;;;;;;31.98;24.51;99897.11;1774213;81;21104;-61
2022/06/09 09:23:08;;;;;;;5.70;2.83;;;;;;;31.96;24.39;99899.47;1773927;80;20986;-62
2022/06/09 09:26:15;;;;;;;5.80;1.80;;;;;;;31.81;24.55;99893.29;1774093;81;21041;-61
2022/06/09 09:29:10;;;;;;;5.00;2.92;;;;;;;31.68;24.67;99887.34;1774217;81;21025;-62
2022/06/09 09:31:57;;;;;;;6.50;2.08;;;;;;;31.50;24.96;99887.30;1774291;81;21020;-61
2022/06/09 09:34:35;;;;;;;4.58;2.40;;;;;;;31.35;25.25;99878.05;1737503;81;21509;-66
2022/06/09 09:37:29;;;;;;;5.90;2.08;;;;;;;31.16;25.27;99882.80;1751889;81;21093;-67
2022/06/09 09:40:19;;;;;;;4.60;2.10;;;;;;;31.13;25.50;99880.63;1773328;80;21441;-62
2022/06/09 09:42:50;;;;;;;5.12;2.05;;;;;;;31.27;26.19;99864.82;1774234;81;21523;-60
2022/06/09 09:45:22;;;;;;;3.45;1.80;;;;;;;31.49;25.90;99870.06;1774830;79;21017;-61
2022/06/09 09:47:58;;;;;;;7.85;2.05;;;;;;;31.65;25.24;99869.63;1783268;79;21091;-62
2022/06/09 09:50:59;;;;;;;5.67;2.05;;;;;;;31.75;24.92;99869.20;1774292;81;21051;-61
2022/06/09 09:53:39;;;;;;;4.78;1.98;;;;;;;31.81;24.63;99874.87;1774146;81;21413;-61
2022/06/09 09:56:22;;;;;;;5.55;2.00;;;;;;;31.72;24.77;99873.33;1774260;81;20996;-60
2022/06/09 09:58:58;;;;;;;5.80;1.80;;;;;;;31.67;25.10;99876.36;1774386;81;21432;-62
2022/06/09 10:01:34;;;;;;;6.00;1.80;;;;;;;31.60;24.92;99862.77;1782379;80;21482;-61
2022/06/09 10:10:42;;;;;;;4.25;2.02;;;;;;;31.39;25.49;99868.52;1751340;82;21483;-62
2022/06/09 10:13:15;;;;;;;9.70;2.00;;;;;;;31.24;25.65;99875.42;1751375;82;21031;-61
2022/06/09 10:15:44;;;;;;;6.92;2.55;;;;;;;31.12;25.67;99868.48;1751426;82;21020;-64
2022/06/09 10:18:20;;;;;;;3.75;1.95;;;;;;;31.02;25.98;99868.09;1726663;82;21039;-62
2022/06/09 10:21:10;;;;;;;4.35;2.10;;;;;;;30.95;25.94;99868.65;1762329;81;21034;-62
2022/06/09 10:23:59;;;;;;;6.00;2.00;;;;;;;30.89;26.28;99865.20;1750689;82;21059;-62
2022/06/09 10:26:32;;;;;;;3.75;1.80;;;;;;;30.93;26.53;99858.27;1749123;82;21052;-63
2022/06/09 10:29:39;;;;;;;2.37;1.57;;;;;;;30.96;26.22;99858.16;1724322;82;21019;-62
2022/06/09 10:32:28;;;;;;;6.20;2.20;;;;;;;30.94;26.27;99850.61;1750652;82;21067;-61
2022/06/09 10:35:06;;;;;;;6.37;1.82;;;;;;;30.95;26.06;99847.42;1750855;82;20984;-61
2022/06/09 10:37:50;;;;;;;;;;;;;;;30.90;26.22;99846.23;1753309;82;21047;-65
2022/06/09 10:40:33;;;;;;;3.85;1.77;;;;;;;30.88;26.16;99847.16;1728955;82;20158;-63
2022/06/09 10:43:28;;;;;;;7.42;2.02;;;;;;;30.92;26.33;99842.47;1750685;82;21015;-62
2022/06/09 10:46:06;;;;;;;5.10;1.80;;;;;;;30.97;25.92;99842.25;1740052;82;21425;-61
2022/06/09 10:57:40;;;;;;;9.13;2.12;;;;;;;31.32;25.22;99837.11;1750111;82;21072;-62
2022/06/09 11:00:19;;;;;;;3.20;1.70;;;;;;;31.35;25.51;99850.57;1720569;83;21321;-61
2022/06/09 11:02:53;;;;;;;5.10;1.87;;;;;;;31.29;25.51;99833.56;1747646;82;21534;-61
2022/06/09 11:05:44;;;;;;;6.58;2.10;;;;;;;31.22;25.79;99837.56;1798421;80;21112;-62
2022/06/09 11:08:25;;;;;;;5.28;1.85;;;;;;;31.22;25.96;99833.31;1718111;83;21027;-62
2022/06/09 11:11:33;;;;;;;5.97;2.00;;;;;;;31.25;25.91;99834.62;1798223;79;21039;-62
2022/06/09 11:14:40;;;;;;;5.80;1.87;;;;;;;31.24;25.92;99825.89;1798367;79;20961;-60
2022/06/09 11:18:06;;;;;;;2.17;1.72;;;;;;;31.19;25.54;99833.98;1785150;79;21075;-61
2022/06/09 11:20:50;;;;;;;3.00;2.17;;;;;;;30.99;25.49;99829.17;1798129;80;21377;-64
2022/06/09 11:23:59;;;;;;;4.60;1.85;;;;;;;30.81;26.09;99826.51;1798386;79;20968;-63
2022/06/09 11:27:02;;;;;;;4.55;1.62;;;;;;;30.75;26.08;99825.06;1766741;81;21083;-62
2022/06/09 11:30:01;;;;;;;11.80;2.15;;;;;;;30.75;26.14;99828.48;1767264;81;20984;-61
2022/06/09 11:32:41;;;;;;;4.08;1.87;;;;;;;30.80;26.34;99832.52;1767159;81;21043;-61
2022/06/09 11:35:33;;;;;;;3.77;1.90;;;;;;;30.86;26.46;99822.63;1764799;81;21032;-61
2022/06/09 11:38:26;;;;;;;5.90;2.08;;;;;;;30.96;26.49;99831.28;1767063;80;21043;-63
2022/06/09 11:41:06;;;;;;;3.58;2.30;;;;;;;31.03;26.29;99821.05;1765824;81;21039;-61
2022/06/09 11:44:09;;;;;;;4.03;2.05;;;;;;;31.14;26.37;99823.67;1763471;81;21480;-62
2022/06/09 11:46:40;;;;;;;4.35;2.02;;;;;;;31.24;26.24;99824.47;1766879;81;22078;-60
2022/06/09 11:49:38;;;;;;;8.83;2.15;;;;;;;31.27;26.17;99826.60;1767091;81;21036;-60
2022/06/09 11:52:11;;;;;;;2.70;1.80;;;;;;;31.25;25.92;99824.13;1795393;80;21071;-57
2022/06/09 11:55:01;;;;;;;4.10;1.92;;;;;;;31.26;26.23;99823.53;1702291;83;21063;-61
2022/06/09 11:57:48;;;;;;;3.58;1.80;;;;;;;31.26;26.24;99827.78;1766862;81;21051;-61
2022/06/09 12:00:31;;;;;;;3.55;2.00;;;;;;;31.20;25.83;99825.73;1767280;81;21048;-60
2022/06/09 12:03:25;;;;;;;5.30;2.10;;;;;;;31.01;26.07;99823.40;1773560;80;21055;-61
2022/06/09 12:05:59;;;;;;;2.65;1.77;;;;;;;30.82;26.50;99824.50;1692906;84;21099;-61
2022/06/09 12:08:43;;;;;;;3.80;1.90;;;;;;;30.75;26.56;99826.48;1773905;81;21416;-62
2022/06/09 12:11:18;;;;;;;6.15;2.47;;;;;;;30.67;26.54;99827.38;1707642;84;21544;-61
2022/06/09 12:14:03;;;;;;;6.08;2.37;;;;;;;30.57;26.85;99829.19;1774223;81;21783;-63
2022/06/09 12:17:14;;;;;;;4.70;2.10;;;;;;;30.53;26.69;99830.43;1707792;83;21061;-61
2022/06/09 12:19:57;;;;;;;4.62;1.72;;;;;;;30.45;26.69;99826.26;1773965;81;21039;-62
2022/06/09 12:22:44;;;;;;;9.40;2.52;;;;;;;30.36;26.60;99819.84;1707819;84;21035;-64
2022/06/09 12:25:21;;;;;;;4.50;2.07;;;;;;;30.32;26.51;99823.12;1774263;80;21302;-62
2022/06/09 12:27:51;;;;;;;3.52;1.90;;;;;;;30.27;26.65;99820.73;1774299;81;21005;-59
2022/06/09 12:30:25;;;;;;;9.98;2.45;;;;;;;30.30;26.59;99822.05;1735012;82;21136;-62
2022/06/09 12:33:17;;;;;;;3.05;2.02;;;;;;;30.29;26.60;99813.33;1806173;79;21454;-61
2022/06/09 12:35:52;;;;;;;4.62;1.80;;;;;;;30.31;26.82;99809.56;1720647;82;21048;-61